Time;durP1;ratioP1;P1;durP2;ratioP2;P2;SDS_P1;SDS_P2;PMS_P1;PMS_P2;Temp;Humidity;BMP_temperature;BMP_pressure;BME280_temperature;BME280_humidity;BME280_pressure;Samples;Min_cycle;Max_cycle;Signal;HPM_P1;HPM_P2
2023/12/21 00:01:34;;;;;;;2.28;0.95;;;;;;;11.32;100.00;98291.38;5009980;28;20065;-65
2023/12/21 00:04:02;;;;;;;1.63;0.80;;;;;;;11.53;100.00;98269.69;5012201;28;20076;-65
2023/12/21 00:06:30;;;;;;;1.00;0.85;;;;;;;11.56;100.00;98266.78;5011464;28;20042;-65
2023/12/21 00:08:57;;;;;;;1.55;0.80;;;;;;;11.42;100.00;98241.72;5012050;28;20145;-65
2023/12/21 00:11:23;;;;;;;1.85;0.70;;;;;;;11.49;100.00;98216.69;5003418;28;20042;-65
2023/12/21 00:13:50;;;;;;;2.50;0.98;;;;;;;11.62;100.00;98227.00;5010328;28;20407;-65
2023/12/21 00:16:17;;;;;;;0.98;0.73;;;;;;;11.58;100.00;98213.31;5011254;28;20049;-65
2023/12/21 00:18:43;;;;;;;1.65;0.80;;;;;;;11.55;100.00;98237.13;5012198;28;20057;-65
2023/12/21 00:21:10;;;;;;;1.40;0.85;;;;;;;11.57;100.00;98214.25;5002215;28;20045;-65
2023/12/21 00:23:37;;;;;;;1.05;0.70;;;;;;;11.32;100.00;98198.88;5011389;28;20552;-65
2023/12/21 00:26:04;;;;;;;1.30;0.80;;;;;;;11.38;100.00;98180.88;5011357;28;20111;-65
2023/12/21 00:28:30;;;;;;;1.48;0.77;;;;;;;11.46;100.00;98188.09;5010089;28;20076;-65
2023/12/21 00:30:57;;;;;;;1.33;0.77;;;;;;;11.45;100.00;98165.47;5009979;28;20435;-65
2023/12/21 00:33:24;;;;;;;3.60;0.77;;;;;;;11.53;100.00;98133.41;5012117;28;20668;-65
2023/12/21 00:35:51;;;;;;;4.15;0.90;;;;;;;11.45;100.00;98126.16;5011615;28;20125;-65
2023/12/21 00:38:18;;;;;;;0.75;0.65;;;;;;;11.50;100.00;98113.50;5011333;28;20054;-65
2023/12/21 00:40:44;;;;;;;2.05;0.98;;;;;;;11.40;100.00;98112.63;5009498;28;20056;-65
2023/12/21 00:43:11;;;;;;;1.75;0.80;;;;;;;11.49;100.00;98095.28;5008888;28;20050;-65
2023/12/21 00:45:38;;;;;;;0.77;0.70;;;;;;;11.44;100.00;98079.97;5011340;28;20400;-65
2023/12/21 00:48:05;;;;;;;1.48;0.80;;;;;;;11.53;100.00;98110.66;5010348;28;20081;-65
2023/12/21 00:50:32;;;;;;;3.60;0.85;;;;;;;11.23;100.00;98116.63;5008131;28;20077;-65
2023/12/21 00:52:58;;;;;;;3.40;0.80;;;;;;;11.34;100.00;98038.00;5009366;28;20438;-65
2023/12/21 00:55:25;;;;;;;3.00;1.00;;;;;;;11.32;100.00;98028.59;5008326;28;20555;-65
2023/12/21 00:57:52;;;;;;;3.58;0.95;;;;;;;11.34;100.00;98032.75;4977598;28;20046;-65
2023/12/21 01:00:18;;;;;;;3.15;1.02;;;;;;;11.19;100.00;97987.72;5003058;28;20053;-65
2023/12/21 01:02:45;;;;;;;0.98;0.80;;;;;;;11.36;100.00;97996.78;5009330;28;20108;-65
2023/12/21 01:05:12;;;;;;;3.53;1.25;;;;;;;11.23;100.00;97987.47;4989711;28;20125;-65
2023/12/21 01:07:38;;;;;;;1.55;0.80;;;;;;;11.35;100.00;97996.91;5008131;28;20049;-65
2023/12/21 01:10:06;;;;;;;0.77;0.70;;;;;;;11.38;100.00;97978.31;5001496;28;20085;-65
2023/12/21 01:12:33;;;;;;;1.48;0.80;;;;;;;11.31;100.00;97964.06;5002679;28;20056;-65
2023/12/21 01:15:00;;;;;;;1.70;0.80;;;;;;;11.37;100.00;97987.97;5010550;28;20045;-65
2023/12/21 01:17:27;;;;;;;1.38;0.70;;;;;;;11.27;100.00;97987.06;5010739;28;20081;-65
2023/12/21 01:19:54;;;;;;;0.70;0.70;;;;;;;11.28;100.00;97987.91;5008263;28;20054;-65
2023/12/21 01:22:21;;;;;;;1.73;0.90;;;;;;;11.39;100.00;97979.97;5010663;28;20073;-65
2023/12/21 01:24:48;;;;;;;0.95;0.80;;;;;;;11.33;100.00;97981.34;5009819;28;20407;-65
2023/12/21 01:27:14;;;;;;;0.70;0.70;;;;;;;11.36;100.00;97999.38;5009385;28;20499;-65
2023/12/21 01:29:56;;;;;;;1.10;0.75;;;;;;;11.39;100.00;98000.94;4999654;28;20386;-65
2023/12/21 01:32:22;;;;;;;1.10;0.80;;;;;;;11.38;100.00;97996.66;5009737;28;20046;-65
2023/12/21 01:34:49;;;;;;;1.00;0.80;;;;;;;11.31;100.00;97975.38;5010488;28;20435;-65
2023/12/21 01:37:16;;;;;;;1.38;0.80;;;;;;;11.72;100.00;98001.63;4984889;28;20109;-65
2023/12/21 01:39:43;;;;;;;0.85;0.70;;;;;;;11.54;100.00;98014.50;4982631;28;20046;-66
2023/12/21 01:42:10;;;;;;;0.75;0.75;;;;;;;11.70;100.00;98017.47;5000756;28;20049;-66
2023/12/21 01:44:36;;;;;;;0.70;0.70;;;;;;;11.80;100.00;98008.84;5010019;28;20505;-65
2023/12/21 01:47:03;;;;;;;0.70;0.70;;;;;;;11.58;100.00;98001.03;5009560;28;20498;-65
2023/12/21 01:49:31;;;;;;;0.70;0.70;;;;;;;11.33;100.00;97991.81;5008796;28;20131;-66
2023/12/21 01:51:59;;;;;;;0.80;0.70;;;;;;;11.48;100.00;97960.03;5001071;28;20362;-66
2023/12/21 01:54:26;;;;;;;0.90;0.70;;;;;;;11.49;100.00;97964.28;5010022;28;20471;-66
2023/12/21 01:56:53;;;;;;;0.60;0.60;;;;;;;11.45;100.00;97970.75;5009642;28;20518;-66
2023/12/21 01:59:20;;;;;;;4.03;0.70;;;;;;;11.43;100.00;97980.53;5009251;28;20072;-66
2023/12/21 02:01:47;;;;;;;0.98;0.70;;;;;;;11.26;100.00;97977.56;5001278;28;20458;-66
2023/12/21 02:04:14;;;;;;;1.52;0.80;;;;;;;11.23;100.00;97949.00;5009602;28;20057;-66
2023/12/21 02:06:41;;;;;;;0.93;0.70;;;;;;;11.19;100.00;97922.25;5009871;28;20057;-66
2023/12/21 02:09:08;;;;;;;0.85;0.70;;;;;;;10.94;100.00;97930.50;5010166;28;20057;-66
2023/12/21 02:11:35;;;;;;;0.82;0.70;;;;;;;11.07;100.00;97933.78;5009038;28;20054;-66
2023/12/21 02:14:02;;;;;;;0.95;0.70;;;;;;;10.90;100.00;97884.63;5008609;28;20427;-66
2023/12/21 02:16:42;;;;;;;1.27;0.80;;;;;;;10.90;100.00;97859.25;5008887;28;20060;-66
2023/12/21 02:19:10;;;;;;;0.90;0.70;;;;;;;10.68;100.00;97843.69;5008939;28;20065;-66
2023/12/21 02:21:41;;;;;;;0.88;0.77;;;;;;;10.67;100.00;97837.66;5007524;28;20046;-66
2023/12/21 02:24:15;;;;;;;1.67;0.70;;;;;;;10.58;100.00;97852.34;5009799;28;20049;-66
2023/12/21 02:26:42;;;;;;;0.60;0.60;;;;;;;10.52;100.00;97860.72;5008535;28;20054;-66
2023/12/21 02:29:09;;;;;;;0.80;0.80;;;;;;;10.51;100.00;97845.13;5005890;28;20496;-66
2023/12/21 02:31:37;;;;;;;0.70;0.70;;;;;;;10.56;100.00;97841.16;5008471;28;20050;-66
2023/12/21 02:34:08;;;;;;;0.70;0.70;;;;;;;10.55;100.00;97839.53;4999799;28;20050;-66
2023/12/21 02:36:34;;;;;;;0.80;0.70;;;;;;;10.42;100.00;97831.84;5009512;28;20060;-66
2023/12/21 02:39:01;;;;;;;0.80;0.70;;;;;;;10.37;100.00;97834.00;5008709;28;20053;-66
2023/12/21 02:41:28;;;;;;;2.38;0.75;;;;;;;10.34;100.00;97842.13;5003290;28;20042;-66
2023/12/21 02:43:55;;;;;;;0.70;0.70;;;;;;;10.50;100.00;97840.84;5006953;28;20070;-66
2023/12/21 02:46:24;;;;;;;0.63;0.60;;;;;;;10.48;100.00;97827.06;5008346;28;20129;-65
2023/12/21 02:48:51;;;;;;;0.68;0.68;;;;;;;10.51;100.00;97801.47;5008458;28;20107;-66
2023/12/21 02:51:18;;;;;;;0.70;0.70;;;;;;;10.48;100.00;97798.28;5000497;28;20157;-65
2023/12/21 02:53:45;;;;;;;0.95;0.70;;;;;;;10.63;100.00;97816.16;5006904;28;20559;-66
2023/12/21 02:56:12;;;;;;;0.70;0.70;;;;;;;10.57;100.00;97794.91;5006016;28;20045;-66
2023/12/21 02:58:40;;;;;;;0.60;0.60;;;;;;;10.73;100.00;97805.75;5006310;28;20062;-66
2023/12/21 03:01:06;;;;;;;1.25;0.93;;;;;;;10.79;100.00;97801.78;4996508;28;20507;-66
2023/12/21 03:03:33;;;;;;;1.00;0.80;;;;;;;10.87;100.00;97796.72;5008728;28;20135;-66
2023/12/21 03:06:00;;;;;;;2.25;0.75;;;;;;;10.67;100.00;97787.94;5007350;28;20057;-66
2023/12/21 03:08:27;;;;;;;0.75;0.70;;;;;;;11.08;100.00;97782.72;5009126;28;20412;-66
2023/12/21 03:10:53;;;;;;;2.85;0.70;;;;;;;11.21;100.00;97792.00;5004945;28;20050;-66
2023/12/21 03:13:20;;;;;;;1.25;0.75;;;;;;;11.10;100.00;97776.41;5007672;28;20050;-66
2023/12/21 03:15:47;;;;;;;0.85;0.70;;;;;;;11.16;100.00;97782.91;5008791;28;20056;-66
2023/12/21 03:18:13;;;;;;;0.63;0.63;;;;;;;11.29;100.00;97783.47;5007624;28;20547;-66
2023/12/21 03:20:40;;;;;;;0.60;0.60;;;;;;;11.42;100.00;97745.72;4996247;28;20045;-66
2023/12/21 03:23:06;;;;;;;0.70;0.70;;;;;;;11.35;100.00;97764.59;5007739;28;20490;-65
2023/12/21 03:25:33;;;;;;;0.60;0.60;;;;;;;11.25;100.00;97744.59;5007335;28;20057;-66
2023/12/21 03:28:00;;;;;;;0.70;0.70;;;;;;;11.38;100.00;97730.28;5009159;28;20046;-66
2023/12/21 03:30:27;;;;;;;0.60;0.60;;;;;;;11.35;100.00;97733.19;5009348;28;20060;-66
2023/12/21 03:32:56;;;;;;;0.60;0.60;;;;;;;11.25;100.00;97708.75;5012767;28;20492;-66
2023/12/21 03:35:23;;;;;;;0.60;0.60;;;;;;;11.21;100.00;97708.19;5009146;28;20052;-66
2023/12/21 03:37:50;;;;;;;0.70;0.70;;;;;;;11.16;100.00;97715.63;5010333;28;20587;-66
2023/12/21 03:40:18;;;;;;;0.82;0.70;;;;;;;11.11;100.00;97709.97;5009340;28;20046;-66
2023/12/21 03:42:49;;;;;;;0.93;0.70;;;;;;;11.29;100.00;97704.88;5007850;28;20041;-66
2023/12/21 03:45:16;;;;;;;0.60;0.60;;;;;;;11.16;100.00;97692.06;5011448;28;20054;-66
2023/12/21 03:47:43;;;;;;;0.70;0.70;;;;;;;11.18;100.00;97678.84;5011425;28;20072;-66
2023/12/21 03:50:09;;;;;;;0.90;0.70;;;;;;;11.21;100.00;97683.81;5007150;28;20050;-66
2023/12/21 03:52:36;;;;;;;1.13;0.80;;;;;;;11.15;100.00;97655.53;5012200;28;20045;-66
2023/12/21 03:55:04;;;;;;;1.73;0.70;;;;;;;11.22;100.00;97672.34;5011901;28;20058;-66
2023/12/21 03:57:30;;;;;;;0.70;0.70;;;;;;;11.16;100.00;97684.22;4995121;28;20794;-66
2023/12/21 03:59:57;;;;;;;1.15;0.75;;;;;;;11.40;100.00;97686.44;5000847;28;20427;-66
2023/12/21 04:02:24;;;;;;;1.35;0.70;;;;;;;11.26;100.00;97686.84;5011571;28;20452;-66
2023/12/21 04:04:50;;;;;;;1.02;0.70;;;;;;;11.51;100.00;97682.00;5003675;28;20054;-67
2023/12/21 04:07:17;;;;;;;1.50;0.70;;;;;;;11.35;100.00;97675.56;5011981;28;20046;-65
2023/12/21 04:09:44;;;;;;;1.33;0.70;;;;;;;11.40;100.00;97669.88;5009900;28;20049;-66
2023/12/21 04:12:10;;;;;;;1.23;0.70;;;;;;;11.57;100.00;97700.63;5011431;28;20050;-66
2023/12/21 04:14:37;;;;;;;1.88;1.00;;;;;;;11.21;100.00;97665.47;5011455;28;20050;-66
2023/12/21 04:17:04;;;;;;;2.83;0.80;;;;;;;11.58;100.00;97688.38;4995016;28;20095;-66
2023/12/21 04:19:30;;;;;;;1.90;0.70;;;;;;;11.43;100.00;97698.44;5011517;28;20058;-66
2023/12/21 04:21:57;;;;;;;3.55;0.82;;;;;;;11.56;100.00;97690.28;5004286;28;20052;-66
2023/12/21 04:24:24;;;;;;;1.50;0.75;;;;;;;11.44;100.00;97673.91;5011044;28;20428;-65
2023/12/21 04:26:51;;;;;;;2.33;1.10;;;;;;;11.56;100.00;97691.13;5011572;28;20058;-66
2023/12/21 04:29:18;;;;;;;2.60;0.90;;;;;;;11.45;100.00;97661.63;5009390;28;20077;-66
2023/12/21 04:31:44;;;;;;;3.30;1.10;;;;;;;11.59;100.00;97680.34;4984004;28;20069;-66
2023/12/21 04:34:11;;;;;;;2.70;1.10;;;;;;;11.35;100.00;97695.66;5009866;28;20133;-66
2023/12/21 04:36:38;;;;;;;1.90;0.73;;;;;;;11.19;100.00;97670.84;5011467;28;20406;-66
2023/12/21 04:39:05;;;;;;;2.60;0.80;;;;;;;11.31;100.00;97689.03;5010395;28;20049;-66
2023/12/21 04:41:31;;;;;;;1.80;0.90;;;;;;;11.34;100.00;97686.16;5010074;28;20045;-66
2023/12/21 04:43:58;;;;;;;1.88;0.90;;;;;;;10.95;100.00;97673.84;5009108;28;20505;-66
2023/12/21 04:46:25;;;;;;;1.65;0.90;;;;;;;10.99;100.00;97690.09;5008220;28;20053;-66
2023/12/21 04:48:51;;;;;;;2.55;0.80;;;;;;;10.76;100.00;97689.50;5009245;28;20053;-66
2023/12/21 04:51:18;;;;;;;1.45;0.75;;;;;;;10.85;100.00;97682.63;5007580;28;20468;-66
2023/12/21 04:53:45;;;;;;;1.65;0.82;;;;;;;10.88;100.00;97683.19;5009607;28;20045;-66
2023/12/21 04:56:12;;;;;;;2.95;0.90;;;;;;;10.78;100.00;97693.66;5011000;28;20045;-66
2023/12/21 04:58:40;;;;;;;4.68;0.90;;;;;;;10.61;100.00;97689.03;4988372;28;20050;-66
2023/12/21 05:01:07;;;;;;;2.20;0.95;;;;;;;10.48;100.00;97664.88;5000714;28;20058;-65
2023/12/21 05:03:34;;;;;;;3.95;1.10;;;;;;;10.67;100.00;97678.03;5009164;28;20172;-66
2023/12/21 05:06:02;;;;;;;3.78;1.00;;;;;;;10.86;100.00;97705.25;5010291;28;20108;-66
2023/12/21 05:08:29;;;;;;;3.90;1.10;;;;;;;10.78;100.00;97683.19;5010152;28;20104;-66
2023/12/21 05:10:55;;;;;;;4.68;0.95;;;;;;;10.77;100.00;97662.38;5007865;28;20062;-66
2023/12/21 05:13:22;;;;;;;5.57;1.42;;;;;;;10.66;100.00;97705.19;5009562;28;20432;-66
2023/12/21 05:15:49;;;;;;;5.85;1.25;;;;;;;10.73;100.00;97693.22;5006702;28;20065;-66
2023/12/21 05:18:16;;;;;;;4.10;0.93;;;;;;;10.93;100.00;97682.81;5007965;28;20642;-66
2023/12/21 05:20:42;;;;;;;5.43;1.55;;;;;;;10.81;100.00;97684.69;5005125;28;20418;-66
2023/12/21 05:23:09;;;;;;;8.25;1.42;;;;;;;11.03;100.00;97675.81;5005823;28;20046;-66
2023/12/21 05:25:36;;;;;;;5.85;1.48;;;;;;;11.12;100.00;97689.84;5006436;28;20053;-66
2023/12/21 05:28:03;;;;;;;7.75;1.40;;;;;;;11.00;100.00;97673.44;5009154;28;20460;-66
2023/12/21 05:30:29;;;;;;;3.97;1.30;;;;;;;11.10;100.00;97661.19;5001408;28;20089;-66
2023/12/21 05:32:56;;;;;;;6.95;1.33;;;;;;;10.98;100.00;97684.03;5009613;28;20045;-66
2023/12/21 05:35:23;;;;;;;9.82;2.00;;;;;;;10.92;100.00;97668.03;5008219;28;20045;-66
2023/12/21 05:37:50;;;;;;;9.18;2.13;;;;;;;10.69;100.00;97693.59;5001949;28;20045;-66
2023/12/21 05:40:16;;;;;;;6.63;1.63;;;;;;;10.75;100.00;97691.28;5006328;28;20142;-66
2023/12/21 05:42:43;;;;;;;6.10;1.73;;;;;;;10.70;100.00;97743.19;5007063;28;20050;-66
2023/12/21 05:45:10;;;;;;;5.88;1.48;;;;;;;10.82;100.00;97718.59;5007875;28;20148;-66
2023/12/21 05:47:37;;;;;;;7.55;1.75;;;;;;;10.77;100.00;97717.34;5006743;28;20050;-66
2023/12/21 05:50:04;;;;;;;10.70;2.20;;;;;;;10.81;100.00;97724.78;5004064;28;20053;-66
2023/12/21 05:52:31;;;;;;;6.90;1.70;;;;;;;10.89;100.00;97738.97;5008345;28;20100;-66
2023/12/21 05:54:58;;;;;;;6.60;1.48;;;;;;;10.83;100.00;97735.94;5009271;28;20061;-66
2023/12/21 05:57:25;;;;;;;13.13;1.90;;;;;;;10.80;100.00;97762.38;4998954;28;20049;-66
2023/12/21 05:59:52;;;;;;;7.05;1.80;;;;;;;10.76;100.00;97781.91;5003333;28;20074;-65
2023/12/21 06:02:19;;;;;;;7.72;1.60;;;;;;;10.75;100.00;97782.06;5007372;28;20133;-66
2023/12/21 06:04:45;;;;;;;9.32;2.22;;;;;;;10.67;100.00;97802.81;5007082;28;20500;-66
2023/12/21 06:07:12;;;;;;;10.77;1.90;;;;;;;10.43;100.00;97781.22;5008090;28;20054;-65
2023/12/21 06:09:39;;;;;;;9.48;1.83;;;;;;;10.30;100.00;97780.53;5008593;28;20476;-66
2023/12/21 06:12:06;;;;;;;10.18;1.95;;;;;;;10.44;100.00;97787.25;5007355;28;20045;-66
2023/12/21 06:14:33;;;;;;;10.27;2.03;;;;;;;9.75;100.00;97795.53;5007768;28;20054;-66
2023/12/21 06:17:00;;;;;;;6.85;1.75;;;;;;;9.36;100.00;97779.50;5008480;28;20137;-65
2023/12/21 06:19:26;;;;;;;7.85;2.35;;;;;;;9.33;100.00;97780.59;5009542;28;20061;-66
2023/12/21 06:21:53;;;;;;;8.77;1.88;;;;;;;9.28;100.00;97827.94;5005541;28;20089;-66
2023/12/21 06:24:20;;;;;;;7.65;1.85;;;;;;;9.13;100.00;97800.44;4998456;28;20050;-66
2023/12/21 06:26:47;;;;;;;7.32;1.60;;;;;;;8.97;100.00;97789.53;4991192;28;20060;-66
2023/12/21 06:29:13;;;;;;;9.05;2.38;;;;;;;8.99;100.00;97788.47;5006620;28;20061;-66
2023/12/21 06:31:40;;;;;;;16.25;2.33;;;;;;;8.96;100.00;97800.91;5004456;28;20048;-66
2023/12/21 06:34:07;;;;;;;10.60;2.10;;;;;;;9.08;100.00;97803.41;5005889;28;20049;-66
2023/12/21 06:36:34;;;;;;;10.95;2.05;;;;;;;9.09;100.00;97802.44;5009656;28;20058;-66
2023/12/21 06:39:00;;;;;;;10.05;1.92;;;;;;;9.44;100.00;97801.47;5008632;28;20077;-66
2023/12/21 06:41:27;;;;;;;11.20;2.45;;;;;;;9.37;100.00;97792.44;5008303;28;20050;-65
2023/12/21 06:43:54;;;;;;;13.10;2.35;;;;;;;9.48;100.00;97815.91;5005026;28;20112;-66
2023/12/21 06:46:21;;;;;;;12.43;2.47;;;;;;;9.42;100.00;97824.25;5005233;28;20141;-66
2023/12/21 06:48:48;;;;;;;8.65;2.45;;;;;;;9.48;100.00;97839.41;5007991;28;20124;-66
2023/12/21 06:51:15;;;;;;;10.93;2.75;;;;;;;9.59;100.00;97838.56;4996284;28;20064;-65
2023/12/21 06:53:42;;;;;;;11.48;2.67;;;;;;;9.62;100.00;97861.03;4998929;28;20038;-66
2023/12/21 06:56:09;;;;;;;11.85;2.75;;;;;;;9.37;100.00;97869.97;5005715;28;20072;-66
2023/12/21 06:58:56;;;;;;;16.58;2.78;;;;;;;9.65;100.00;97859.00;4997644;28;20100;-66
2023/12/21 07:01:26;;;;;;;14.27;2.55;;;;;;;9.73;100.00;97860.16;5005870;28;20476;-66
2023/12/21 07:03:54;;;;;;;19.80;3.67;;;;;;;9.77;100.00;97872.84;5007410;28;20116;-66
2023/12/21 07:06:20;;;;;;;18.95;3.15;;;;;;;9.44;100.00;97858.91;5004344;28;20575;-66
2023/12/21 07:08:47;;;;;;;22.15;3.70;;;;;;;9.59;100.00;97869.91;5007474;28;20049;-66
2023/12/21 07:11:14;;;;;;;14.02;3.03;;;;;;;9.22;100.00;97857.13;4994566;28;20054;-66
2023/12/21 07:13:41;;;;;;;17.15;3.42;;;;;;;9.72;100.00;97856.72;4993595;28;20427;-66
2023/12/21 07:16:08;;;;;;;17.63;3.42;;;;;;;9.77;100.00;97856.34;5009829;28;20472;-66
2023/12/21 07:18:35;;;;;;;15.13;2.70;;;;;;;9.61;100.00;97869.78;5011330;28;20046;-66
2023/12/21 07:21:03;;;;;;;18.55;4.00;;;;;;;9.57;100.00;97912.78;5006305;28;20049;-65
2023/12/21 07:23:30;;;;;;;14.55;3.00;;;;;;;9.50;100.00;97960.28;5009318;28;20137;-66
2023/12/21 07:25:57;;;;;;;17.95;3.28;;;;;;;8.06;100.00;97917.09;5008951;28;20067;-66
2023/12/21 07:28:25;;;;;;;17.92;3.40;;;;;;;7.83;100.00;97957.00;4997129;28;20123;-66
2023/12/21 07:30:52;;;;;;;15.77;3.13;;;;;;;7.40;100.00;97986.81;4996735;28;20073;-66
2023/12/21 07:33:19;;;;;;;13.75;3.63;;;;;;;7.23;100.00;97980.19;5010321;28;20050;-66
2023/12/21 07:35:45;;;;;;;13.40;2.53;;;;;;;7.12;100.00;97982.66;5009648;28;20050;-66
2023/12/21 07:38:12;;;;;;;13.75;3.10;;;;;;;7.05;100.00;97977.06;5007755;28;20472;-66
2023/12/21 07:40:39;;;;;;;11.07;2.50;;;;;;;7.37;100.00;97968.84;5004385;28;20057;-66
2023/12/21 07:43:06;;;;;;;21.65;4.53;;;;;;;7.32;100.00;97966.53;5006929;28;20105;-66
2023/12/21 07:45:32;;;;;;;13.98;3.65;;;;;;;7.27;100.00;97959.97;4980550;28;20054;-66
2023/12/21 07:47:59;;;;;;;18.73;3.10;;;;;;;7.50;100.00;97969.63;4993944;28;20065;-66
2023/12/21 07:50:27;;;;;;;20.15;3.67;;;;;;;7.30;100.00;97951.97;4999921;28;20104;-66
2023/12/21 07:52:56;;;;;;;17.02;4.55;;;;;;;7.44;100.00;97970.06;4997905;28;20286;-66
2023/12/21 07:55:23;;;;;;;17.05;3.30;;;;;;;7.55;100.00;97972.75;5006697;28;20048;-66
2023/12/21 07:57:50;;;;;;;19.42;3.65;;;;;;;7.65;100.00;97974.72;5007985;28;20050;-66
2023/12/21 08:00:17;;;;;;;13.77;3.65;;;;;;;7.75;100.00;97958.34;4998749;28;20052;-66
2023/12/21 08:02:46;;;;;;;12.43;3.50;;;;;;;7.91;100.00;97962.47;5007211;28;20136;-66
2023/12/21 08:05:14;;;;;;;15.85;3.58;;;;;;;7.92;100.00;97969.34;5011250;28;20069;-66
2023/12/21 08:07:42;;;;;;;19.70;4.80;;;;;;;8.01;100.00;97965.28;5001906;28;20060;-66
2023/12/21 08:10:09;;;;;;;33.15;5.90;;;;;;;7.82;100.00;97966.56;5008637;28;20078;-66
2023/12/21 08:12:36;;;;;;;19.80;4.35;;;;;;;7.90;100.00;97959.03;5010096;28;20064;-66
2023/12/21 08:15:03;;;;;;;30.67;4.90;;;;;;;8.08;100.00;97967.31;5008370;28;20057;-66
2023/12/21 08:17:31;;;;;;;24.60;4.00;;;;;;;8.18;100.00;98010.03;5009153;28;20054;-66
2023/12/21 08:19:58;;;;;;;18.52;5.00;;;;;;;7.83;100.00;98032.53;5008853;28;20056;-66
2023/12/21 08:22:25;;;;;;;25.58;4.95;;;;;;;7.74;100.00;98086.91;5003764;28;20108;-66
2023/12/21 08:24:52;;;;;;;13.90;3.88;;;;;;;7.49;100.00;98092.09;5010909;28;20058;-66
2023/12/21 08:27:19;;;;;;;19.35;4.00;;;;;;;7.49;100.00;98071.28;5010609;28;20483;-66
2023/12/21 08:29:46;;;;;;;18.83;4.88;;;;;;;7.59;100.00;98065.34;4991072;28;20053;-66
2023/12/21 08:32:16;;;;;;;17.52;4.22;;;;;;;7.67;100.00;98087.44;5009032;28;20053;-66
2023/12/21 08:34:42;;;;;;;16.95;4.30;;;;;;;7.22;100.00;98038.34;5009813;28;20445;-66
2023/12/21 08:37:12;;;;;;;18.52;4.90;;;;;;;7.51;100.00;98083.28;5009139;28;20054;-66
2023/12/21 08:39:39;;;;;;;24.45;5.00;;;;;;;7.57;100.00;98058.59;4997163;28;20050;-66
2023/12/21 08:42:08;;;;;;;20.38;4.68;;;;;;;7.63;100.00;98081.59;5003133;28;20522;-66
2023/12/21 08:44:36;;;;;;;20.73;4.32;;;;;;;7.59;100.00;98083.56;5010774;28;20050;-66
2023/12/21 08:47:06;;;;;;;16.50;4.75;;;;;;;7.42;100.00;98076.09;5012376;28;20041;-66
2023/12/21 08:49:33;;;;;;;15.13;3.50;;;;;;;7.63;100.00;98105.03;5012194;28;20056;-66
2023/12/21 08:52:00;;;;;;;19.20;4.68;;;;;;;7.48;100.00;98093.88;5008062;28;20050;-66
2023/12/21 08:54:27;;;;;;;18.98;4.78;;;;;;;7.53;100.00;98104.81;4995125;28;20084;-66
2023/12/21 08:56:54;;;;;;;16.27;3.42;;;;;;;7.72;100.00;98101.81;5011447;28;20046;-66
2023/12/21 08:59:21;;;;;;;14.90;4.45;;;;;;;7.83;100.00;98108.06;5004488;28;20128;-66
2023/12/21 09:01:48;;;;;;;20.13;5.38;;;;;;;7.68;100.00;98129.00;4993624;28;20065;-66
2023/12/21 09:04:15;;;;;;;28.05;5.72;;;;;;;7.68;100.00;98126.38;5010041;28;20049;-66
2023/12/21 09:06:42;;;;;;;25.27;5.05;;;;;;;7.53;100.00;98143.06;5011202;28;20061;-66
2023/12/21 09:09:09;;;;;;;21.77;5.20;;;;;;;7.50;100.00;98146.69;5010682;28;20052;-66
2023/12/21 09:11:35;;;;;;;18.33;3.63;;;;;;;7.44;100.00;98157.53;5009503;28;20550;-66
2023/12/21 09:14:02;;;;;;;25.48;5.47;;;;;;;7.65;100.00;98172.63;5010280;28;20056;-66
2023/12/21 09:16:29;;;;;;;25.13;5.43;;;;;;;7.59;100.00;98171.28;5011524;28;20510;-66
2023/12/21 09:18:57;;;;;;;32.53;6.43;;;;;;;7.63;100.00;98179.72;5011408;28;20119;-66
2023/12/21 09:21:24;;;;;;;27.90;5.72;;;;;;;7.64;100.00;98191.81;5009988;28;20550;-66
2023/12/21 09:23:51;;;;;;;21.25;5.00;;;;;;;7.48;100.00;98211.03;5007407;28;20062;-65
2023/12/21 09:26:17;;;;;;;18.02;4.15;;;;;;;7.32;100.00;98232.03;5010945;28;20535;-66
2023/12/21 09:28:45;;;;;;;27.38;5.65;;;;;;;7.43;100.00;98233.94;5006481;28;20046;-66
2023/12/21 09:31:11;;;;;;;26.58;7.15;;;;;;;7.47;100.00;98243.25;5007575;28;20077;-66
2023/12/21 09:33:40;;;;;;;26.60;5.72;;;;;;;7.52;100.00;98240.31;5011223;28;20054;-65
2023/12/21 09:36:09;;;;;;;22.63;6.03;;;;;;;7.38;100.00;98249.00;5008704;28;20054;-66
2023/12/21 09:38:36;;;;;;;21.77;5.15;;;;;;;7.51;100.00;98251.69;5011316;28;20089;-66
2023/12/21 09:41:03;;;;;;;21.50;5.43;;;;;;;7.38;100.00;98265.50;5010135;28;20050;-65
2023/12/21 09:43:31;;;;;;;24.02;5.40;;;;;;;7.31;100.00;98253.81;5010766;28;20064;-66
2023/12/21 09:45:59;;;;;;;23.85;4.95;;;;;;;7.32;100.00;98265.03;5005327;28;20096;-68
2023/12/21 09:48:28;;;;;;;28.60;6.15;;;;;;;7.20;100.00;98253.63;5010609;28;20081;-66
2023/12/21 09:50:57;;;;;;;24.58;6.28;;;;;;;7.34;100.00;98299.63;5005274;28;20140;-66
2023/12/21 09:53:26;;;;;;;31.10;6.57;;;;;;;7.56;100.00;98299.94;5011253;28;20050;-65
2023/12/21 09:55:53;;;;;;;19.98;4.97;;;;;;;7.49;100.00;98303.84;5010918;28;20052;-66
2023/12/21 09:58:20;;;;;;;28.88;5.55;;;;;;;7.43;100.00;98314.66;5010113;28;20472;-66
2023/12/21 10:00:47;;;;;;;22.63;5.20;;;;;;;7.54;100.00;98343.47;5000822;28;20076;-65
2023/12/21 10:03:14;;;;;;;21.13;5.18;;;;;;;7.48;100.00;98343.00;5009733;28;20068;-65
2023/12/21 10:05:41;;;;;;;24.67;5.55;;;;;;;7.41;100.00;98326.94;5009726;28;20110;-65
2023/12/21 10:08:09;;;;;;;29.23;5.82;;;;;;;7.15;100.00;98344.16;5009904;28;20136;-65
2023/12/21 10:10:37;;;;;;;26.05;5.65;;;;;;;7.37;100.00;98352.31;5007883;28;20053;-65
2023/12/21 10:13:04;;;;;;;33.28;6.35;;;;;;;7.32;100.00;98351.78;5009091;28;20045;-65
2023/12/21 10:15:32;;;;;;;20.88;5.78;;;;;;;7.57;100.00;98360.66;5010213;28;20052;-65
2023/12/21 10:18:00;;;;;;;28.73;6.80;;;;;;;7.35;100.00;98369.81;5010513;28;20058;-65
2023/12/21 10:20:26;;;;;;;25.13;5.53;;;;;;;7.28;100.00;98378.06;5005816;28;20112;-65
2023/12/21 10:22:56;;;;;;;22.98;5.10;;;;;;;7.29;100.00;98359.75;5010520;28;20050;-65
2023/12/21 10:25:24;;;;;;;25.33;6.57;;;;;;;7.37;100.00;98387.94;5010368;28;20128;-66
2023/12/21 10:27:55;;;;;;;28.40;6.18;;;;;;;7.38;100.00;98393.06;4992270;28;20145;-65
2023/12/21 10:30:23;;;;;;;33.65;6.68;;;;;;;7.53;100.00;98404.28;5007286;28;20128;-65
2023/12/21 10:32:55;;;;;;;26.35;5.50;;;;;;;7.62;100.00;98391.63;5001961;28;20041;-66
2023/12/21 10:35:24;;;;;;;21.40;4.75;;;;;;;7.47;100.00;98396.84;5010116;28;20092;-65
2023/12/21 10:37:51;;;;;;;29.33;6.53;;;;;;;7.35;100.00;98395.84;5009839;28;20538;-67
2023/12/21 10:40:18;;;;;;;27.67;6.07;;;;;;;7.40;100.00;98406.81;5005120;28;20054;-65
2023/12/21 10:42:47;;;;;;;23.55;5.15;;;;;;;7.48;100.00;98403.72;5003759;28;20046;-64
2023/12/21 10:45:16;;;;;;;21.17;4.57;;;;;;;7.66;100.00;98400.91;5003111;28;20056;-64
2023/12/21 10:48:05;;;;;;;34.20;6.43;;;;;;;7.54;100.00;98426.78;5008977;28;20069;-66
2023/12/21 10:50:34;;;;;;;28.13;5.13;;;;;;;7.35;100.00;98410.63;5003192;28;20624;-64
2023/12/21 10:53:02;;;;;;;20.13;4.65;;;;;;;7.55;100.00;98419.81;5004149;28;20049;-64
2023/12/21 10:55:31;;;;;;;27.13;5.53;;;;;;;7.43;100.00;98454.41;4992367;28;20057;-64
2023/12/21 10:58:00;;;;;;;32.28;6.15;;;;;;;7.38;100.00;98426.91;5010198;28;20474;-64
2023/12/21 11:00:28;;;;;;;18.65;4.13;;;;;;;7.40;100.00;98463.22;5008343;28;20076;-64
2023/12/21 11:02:57;;;;;;;23.20;5.10;;;;;;;7.43;100.00;98429.19;5010328;28;20045;-64
2023/12/21 11:05:26;;;;;;;22.00;5.35;;;;;;;7.27;100.00;98431.91;5009523;28;20045;-66
2023/12/21 11:07:54;;;;;;;21.77;4.70;;;;;;;7.29;100.00;98437.03;5009280;28;20137;-64
2023/12/21 11:10:22;;;;;;;24.35;5.15;;;;;;;7.28;100.00;98448.34;5006306;28;20069;-64
2023/12/21 11:12:50;;;;;;;28.58;6.15;;;;;;;7.10;100.00;98426.88;5008379;28;20701;-64
2023/12/21 11:15:19;;;;;;;28.75;6.53;;;;;;;7.17;100.00;98451.59;5009398;28;20064;-66
2023/12/21 11:17:56;;;;;;;28.27;5.38;;;;;;;7.19;100.00;98444.56;5009208;28;20054;-66
2023/12/21 11:20:30;;;;;;;17.38;4.50;;;;;;;6.94;100.00;98468.59;5006091;28;20128;-65
2023/12/21 11:23:11;;;;;;;23.33;5.18;;;;;;;7.04;100.00;98461.91;5009369;28;20124;-64
2023/12/21 11:25:38;;;;;;;21.98;4.97;;;;;;;6.98;100.00;98499.53;5009385;28;20241;-65